createdAt,value
2018-01-10T00:00:06.979Z,-6.10
2018-01-10T00:02:33.729Z,-6.00
2018-01-10T00:05:00.777Z,-6.00
2018-01-10T00:07:27.740Z,-5.90
2018-01-10T00:09:54.785Z,-5.90
2018-01-10T00:12:21.938Z,-5.90
2018-01-10T00:14:50.015Z,-5.90
2018-01-10T00:17:17.116Z,-5.90
2018-01-10T00:19:46.375Z,-5.90
2018-01-10T00:22:13.528Z,-5.90
2018-01-10T00:24:40.787Z,-5.90
2018-01-10T00:27:08.044Z,-6.00
2018-01-10T00:29:36.838Z,-6.00
2018-01-10T00:32:03.575Z,-6.00
2018-01-10T00:34:30.739Z,-6.10
2018-01-10T00:36:57.896Z,-6.10
2018-01-10T00:39:25.902Z,-6.10
2018-01-10T00:41:54.357Z,-6.00
2018-01-10T00:44:22.432Z,-6.00
2018-01-10T00:46:52.304Z,-6.00
2018-01-10T00:49:21.540Z,-6.10
2018-01-10T00:51:50.177Z,-6.20
2018-01-10T00:54:20.000Z,-6.20
2018-01-10T00:56:47.622Z,-6.20
2018-01-10T00:59:17.827Z,-6.20
2018-01-10T01:01:47.937Z,-6.20
2018-01-10T01:04:15.233Z,-6.30
2018-01-10T01:06:42.245Z,-6.30
2018-01-10T01:09:10.257Z,-6.20
2018-01-10T01:11:39.436Z,-6.30
2018-01-10T01:14:08.411Z,-6.40
2018-01-10T01:16:35.203Z,-6.30
2018-01-10T01:19:03.281Z,-6.40
2018-01-10T01:21:31.508Z,-6.30
2018-01-10T01:24:01.395Z,-6.20
2018-01-10T01:26:28.432Z,-6.20
2018-01-10T01:28:55.101Z,-6.10
2018-01-10T01:31:22.730Z,-6.10
2018-01-10T01:33:50.102Z,-6.10
2018-01-10T01:36:18.130Z,-6.10
2018-01-10T01:38:45.333Z,-6.20
2018-01-10T01:41:12.182Z,-6.20
2018-01-10T01:43:39.393Z,-6.30
2018-01-10T01:46:08.439Z,-6.30
2018-01-10T01:48:35.695Z,-6.40
2018-01-10T01:51:03.362Z,-6.30
2018-01-10T01:53:30.314Z,-6.30
2018-01-10T01:55:57.471Z,-6.30
2018-01-10T01:58:24.420Z,-6.20
2018-01-10T02:00:51.258Z,-6.30
2018-01-10T02:03:18.633Z,-6.30
2018-01-10T02:05:45.408Z,-6.30
2018-01-10T02:08:13.149Z,-6.30
2018-01-10T02:10:40.198Z,-6.30
2018-01-10T02:13:07.048Z,-6.40
2018-01-10T02:15:33.895Z,-6.40
2018-01-10T02:18:01.028Z,-6.40
2018-01-10T02:20:28.824Z,-6.40
2018-01-10T02:22:55.669Z,-6.40
2018-01-10T02:25:22.527Z,-6.40
2018-01-10T02:27:50.542Z,-6.60
2018-01-10T02:30:17.750Z,-6.60
2018-01-10T02:32:44.704Z,-6.50
2018-01-10T02:35:12.475Z,-6.50
2018-01-10T02:37:39.214Z,-6.40
2018-01-10T02:40:06.144Z,-6.50
2018-01-10T02:42:37.522Z,-6.50
2018-01-10T02:45:04.163Z,-6.50
2018-01-10T02:47:31.024Z,-6.70
2018-01-10T02:49:57.761Z,-6.80
2018-01-10T02:52:25.018Z,-6.90
2018-01-10T02:54:51.876Z,-6.80
2018-01-10T02:57:18.612Z,-6.80
2018-01-10T02:59:45.668Z,-6.80
2018-01-10T03:02:14.048Z,-6.90
2018-01-10T03:04:40.986Z,-6.80
2018-01-10T03:07:08.160Z,-6.90
2018-01-10T03:09:34.899Z,-7.00
2018-01-10T03:12:01.843Z,-7.00
2018-01-10T03:14:31.671Z,-7.10
2018-01-10T03:16:58.927Z,-7.10
2018-01-10T03:19:25.673Z,-7.20
2018-01-10T03:21:52.725Z,-7.20
2018-01-10T03:24:19.474Z,-7.10
2018-01-10T03:26:46.310Z,-7.00
2018-01-10T03:29:13.271Z,-7.10
2018-01-10T03:31:40.020Z,-7.40
2018-01-10T03:34:07.687Z,-7.40
2018-01-10T03:36:34.385Z,-7.40
2018-01-10T03:39:01.280Z,-7.30
2018-01-10T03:41:29.050Z,-7.30
2018-01-10T03:43:55.901Z,-7.20
2018-01-10T03:46:45.429Z,-7.10
2018-01-10T03:49:16.042Z,-7.00
2018-01-10T03:51:42.749Z,-7.10
2018-01-10T03:54:09.804Z,-7.20
2018-01-10T03:56:36.750Z,-7.30
2018-01-10T03:59:04.422Z,-7.20
2018-01-10T04:01:31.268Z,-7.20
2018-01-10T04:03:58.728Z,-7.20
2018-01-10T04:06:25.574Z,-7.20
2018-01-10T04:08:52.422Z,-7.10
2018-01-10T04:11:19.478Z,-7.10
2018-01-10T04:13:46.736Z,-7.20
2018-01-10T04:16:13.684Z,-7.20
2018-01-10T04:18:41.457Z,-7.30
2018-01-10T04:21:08.203Z,-7.40
2018-01-10T04:23:35.351Z,-7.40
2018-01-10T04:26:02.514Z,-7.40
2018-01-10T04:28:30.950Z,-7.50
2018-01-10T04:30:57.957Z,-7.60
2018-01-10T04:33:25.312Z,-7.70
2018-01-10T04:35:52.568Z,-7.70
2018-01-10T04:38:19.421Z,-7.70
2018-01-10T04:40:46.673Z,-7.80
2018-01-10T04:43:13.419Z,-7.80
2018-01-10T04:45:40.352Z,-7.80
2018-01-10T04:48:07.834Z,-8.00
2018-01-10T04:50:34.684Z,-8.00
2018-01-10T04:53:01.840Z,-8.00
2018-01-10T04:55:28.890Z,-8.00
2018-01-10T04:57:56.255Z,-8.10
2018-01-10T05:00:25.062Z,-8.20
2018-01-10T05:02:53.430Z,-8.20
2018-01-10T05:05:20.420Z,-8.10
2018-01-10T05:07:47.131Z,-8.20
2018-01-10T05:10:13.875Z,-8.20
2018-01-10T05:12:41.033Z,-8.20
2018-01-10T05:15:07.851Z,-8.20
2018-01-10T05:17:35.544Z,-8.30
2018-01-10T05:20:03.825Z,-8.30
2018-01-10T05:22:30.657Z,-8.30
2018-01-10T05:24:58.545Z,-8.30
2018-01-10T05:27:25.292Z,-8.30
2018-01-10T05:29:52.449Z,-8.40
2018-01-10T05:32:19.194Z,-8.40
2018-01-10T05:34:45.943Z,-8.40
2018-01-10T05:37:12.583Z,-8.50
2018-01-10T05:39:39.743Z,-8.60
2018-01-10T05:42:06.564Z,-8.60
2018-01-10T05:44:34.664Z,-8.60
2018-01-10T05:47:01.415Z,-8.60
2018-01-10T05:49:28.294Z,-8.60
2018-01-10T05:51:55.057Z,-8.60
2018-01-10T05:54:22.759Z,-8.70
2018-01-10T05:56:50.227Z,-8.80
2018-01-10T05:59:18.291Z,-8.80
2018-01-10T06:01:45.278Z,-8.80
2018-01-10T06:04:12.320Z,-8.80
2018-01-10T06:06:40.194Z,-9.00
2018-01-10T06:09:06.937Z,-9.10
2018-01-10T06:11:33.683Z,-9.00
2018-01-10T06:14:00.623Z,-9.10
2018-01-10T06:16:27.584Z,-9.10
2018-01-10T06:18:54.948Z,-9.10
2018-01-10T06:21:22.202Z,-9.00
2018-01-10T06:23:49.774Z,-9.00
2018-01-10T06:26:16.928Z,-9.10
2018-01-10T06:28:44.181Z,-9.10
2018-01-10T06:31:11.340Z,-9.00
2018-01-10T06:33:39.475Z,-9.10
2018-01-10T06:36:07.287Z,-9.10
2018-01-10T06:38:34.137Z,-9.20
2018-01-10T06:41:00.982Z,-9.30
2018-01-10T06:43:27.938Z,-9.40
2018-01-10T06:45:55.497Z,-9.40
2018-01-10T06:51:18.772Z,-9.40
2018-01-10T06:53:46.335Z,-9.50
2018-01-10T06:56:13.192Z,-9.70
2018-01-10T06:58:40.441Z,-9.70
2018-01-10T07:01:08.211Z,-9.70
2018-01-10T07:03:35.775Z,-9.70
2018-01-10T07:06:02.522Z,-9.60
2018-01-10T07:08:32.070Z,-9.60
2018-01-10T07:11:01.030Z,-9.60
2018-01-10T07:13:29.073Z,-9.60
2018-01-10T07:15:57.079Z,-9.70
2018-01-10T07:18:25.886Z,-9.70
2018-01-10T07:20:53.397Z,-9.90
2018-01-10T07:23:20.900Z,-9.90
2018-01-10T07:25:48.874Z,-9.80
2018-01-10T07:28:16.441Z,-9.90
2018-01-10T07:30:43.296Z,-9.80
2018-01-10T07:33:10.448Z,-9.70
2018-01-10T07:35:37.291Z,-9.70
2018-01-10T07:38:04.755Z,-9.80
2018-01-10T07:40:31.501Z,-9.90
2018-01-10T07:42:58.557Z,-9.90
2018-01-10T07:45:25.404Z,-9.80
2018-01-10T07:47:52.349Z,-9.90
2018-01-10T07:50:19.202Z,-9.90
2018-01-10T07:52:47.464Z,-9.90
2018-01-10T07:55:15.460Z,-10.10
2018-01-10T07:57:42.458Z,-10.10
2018-01-10T08:00:09.592Z,-10.10
2018-01-10T08:02:36.413Z,-10.00
2018-01-10T08:05:03.162Z,-10.00
2018-01-10T08:07:30.188Z,-10.10
2018-01-10T08:09:58.083Z,-10.10
2018-01-10T08:12:25.864Z,-10.10
2018-01-10T08:14:52.719Z,-10.10
2018-01-10T08:17:19.965Z,-10.10
2018-01-10T08:19:46.706Z,-10.00
2018-01-10T08:22:13.760Z,-9.90
2018-01-10T08:24:40.471Z,-9.90
2018-01-10T08:27:07.249Z,-9.90
2018-01-10T08:29:34.103Z,-10.00
2018-01-10T08:32:00.852Z,-10.00
2018-01-10T08:34:28.823Z,-9.80
2018-01-10T08:36:55.983Z,-9.90
2018-01-10T08:39:24.054Z,-10.00
2018-01-10T08:41:51.107Z,-10.00
2018-01-10T08:44:19.493Z,-9.90
2018-01-10T08:46:46.546Z,-9.90
2018-01-10T08:49:14.211Z,-9.90
2018-01-10T08:51:41.263Z,-9.90
2018-01-10T08:54:08.013Z,-9.80
2018-01-10T08:56:34.859Z,-9.70
2018-01-10T08:59:02.013Z,-9.60
2018-01-10T09:01:29.248Z,-9.60
2018-01-10T09:03:55.962Z,-9.60
2018-01-10T09:06:22.662Z,-9.60
2018-01-10T09:08:49.921Z,-9.50
2018-01-10T09:11:16.771Z,-9.50
2018-01-10T09:13:43.517Z,-9.50
2018-01-10T09:16:10.469Z,-9.60
2018-01-10T09:18:37.212Z,-9.50
2018-01-10T09:21:06.110Z,-9.50
2018-01-10T09:23:33.369Z,-9.50
2018-01-10T09:26:00.089Z,-9.50
2018-01-10T09:28:28.495Z,-9.30
2018-01-10T09:30:55.345Z,-9.40
2018-01-10T09:33:22.089Z,-9.40
2018-01-10T09:35:49.759Z,-9.40
2018-01-10T09:38:16.503Z,-9.30
2018-01-10T09:40:43.457Z,-9.30
2018-01-10T09:43:10.716Z,-9.30
2018-01-10T09:45:38.382Z,-9.20
2018-01-10T09:48:07.030Z,-9.10
2018-01-10T09:50:33.821Z,-9.10
2018-01-10T09:53:00.976Z,-9.00
2018-01-10T09:55:28.233Z,-8.90
2018-01-10T09:57:55.181Z,-8.80
2018-01-10T10:00:22.237Z,-8.70
2018-01-10T10:02:49.286Z,-8.50
2018-01-10T10:05:16.139Z,-8.40
2018-01-10T10:07:43.703Z,-8.30
2018-01-10T10:10:10.553Z,-8.30
2018-01-10T10:12:37.306Z,-8.10
2018-01-10T10:15:04.145Z,-8.00
2018-01-10T10:17:30.892Z,-8.00
2018-01-10T10:19:57.740Z,-8.00
2018-01-10T10:22:25.317Z,-7.90
2018-01-10T10:24:52.052Z,-7.90
2018-01-10T10:27:19.207Z,-7.90
2018-01-10T10:29:46.157Z,-7.70
2018-01-10T10:32:13.211Z,-7.70
2018-01-10T10:34:40.675Z,-7.70
2018-01-10T10:37:07.524Z,-7.70
2018-01-10T10:39:34.368Z,-7.70
2018-01-10T10:42:01.119Z,-7.70
2018-01-10T10:44:27.967Z,-7.60
2018-01-10T10:46:54.687Z,-7.60
2018-01-10T10:49:22.789Z,-7.50
2018-01-10T10:51:49.942Z,-7.40
2018-01-10T10:54:17.613Z,-7.40
2018-01-10T10:56:44.460Z,-7.40
2018-01-10T10:59:11.204Z,-7.40
2018-01-10T11:01:38.055Z,-7.40
2018-01-10T11:04:05.210Z,-7.40
2018-01-10T11:06:34.240Z,-7.40
2018-01-10T11:09:01.907Z,-7.30
2018-01-10T11:11:29.142Z,-7.30
2018-01-10T11:13:56.184Z,-7.30
2018-01-10T11:16:24.260Z,-7.20
2018-01-10T11:18:51.214Z,-7.10
2018-01-10T11:21:18.060Z,-7.00
2018-01-10T11:23:45.430Z,-7.00
2018-01-10T11:26:12.452Z,-7.00
2018-01-10T11:28:42.290Z,-7.00
2018-01-10T11:31:09.351Z,-7.00
2018-01-10T11:33:36.093Z,-7.00
2018-01-10T11:36:03.249Z,-6.90
2018-01-10T11:38:30.093Z,-6.80
2018-01-10T11:40:56.846Z,-6.80
2018-01-10T11:43:23.680Z,-6.70
2018-01-10T11:45:50.643Z,-6.70
2018-01-10T11:48:17.667Z,-6.60
2018-01-10T11:50:45.155Z,-6.60
2018-01-10T11:53:16.377Z,-6.60
2018-01-10T11:55:49.252Z,-6.60
2018-01-10T11:58:21.410Z,-6.60
2018-01-10T12:00:52.059Z,-6.60
2018-01-10T12:03:20.871Z,-6.60
2018-01-10T12:05:48.148Z,-6.60
2018-01-10T12:08:15.404Z,-6.50
2018-01-10T12:10:43.278Z,-6.40
2018-01-10T12:13:10.430Z,-6.30
2018-01-10T12:15:39.220Z,-6.30
2018-01-10T12:18:07.582Z,-6.20
2018-01-10T12:20:37.341Z,-5.90
2018-01-10T12:23:07.916Z,-5.90
2018-01-10T12:25:40.198Z,-6.00
2018-01-10T12:28:10.594Z,-6.10
2018-01-10T12:30:41.121Z,-6.10
2018-01-10T12:33:12.545Z,-6.20
2018-01-10T12:35:43.780Z,-6.20
2018-01-10T12:38:12.469Z,-6.30
2018-01-10T12:40:44.786Z,-6.20
2018-01-10T12:43:13.719Z,-6.10
2018-01-10T12:45:43.511Z,-6.10
2018-01-10T12:48:13.299Z,-6.20
2018-01-10T12:50:43.635Z,-6.10
2018-01-10T12:53:15.370Z,-6.00
2018-01-10T12:55:45.580Z,-6.00
2018-01-10T12:58:15.705Z,-6.00
2018-01-10T13:00:43.695Z,-6.00
2018-01-10T13:03:10.750Z,-6.00
2018-01-10T13:05:37.496Z,-6.00
2018-01-10T13:08:04.652Z,-6.00
2018-01-10T13:10:32.728Z,-5.90
2018-01-10T13:12:59.780Z,-6.00
2018-01-10T13:15:26.732Z,-5.90
2018-01-10T13:17:53.476Z,-5.90
2018-01-10T13:20:20.299Z,-5.90
2018-01-10T13:22:47.889Z,-5.90
2018-01-10T13:25:15.354Z,-6.10
2018-01-10T13:27:42.613Z,-6.20
2018-01-10T13:30:10.224Z,-6.40
2018-01-10T13:32:37.334Z,-6.40
2018-01-10T13:35:04.545Z,-6.30
2018-01-10T13:37:31.846Z,-6.40
2018-01-10T13:39:58.592Z,-6.30
2018-01-10T13:42:28.302Z,-6.30
2018-01-10T13:44:55.564Z,-6.40
2018-01-10T13:47:23.334Z,-6.40
2018-01-10T13:49:50.182Z,-6.40
2018-01-10T13:52:17.546Z,-6.30
2018-01-10T13:54:44.596Z,-6.40
2018-01-10T13:57:12.340Z,-6.40
2018-01-10T13:59:40.035Z,-6.30
2018-01-10T14:02:06.884Z,-6.30
2018-01-10T14:04:35.600Z,-6.30
2018-01-10T14:07:03.037Z,-6.30
2018-01-10T14:09:30.188Z,-6.40
2018-01-10T14:12:00.936Z,-6.40
2018-01-10T14:14:30.118Z,-6.40
2018-01-10T14:16:57.931Z,-6.40
2018-01-10T14:19:27.433Z,-6.40
2018-01-10T14:21:57.830Z,-6.40
2018-01-10T14:24:26.709Z,-6.40
2018-01-10T14:26:55.935Z,-6.50
2018-01-10T14:29:23.680Z,-6.40
2018-01-10T14:31:51.884Z,-6.30
2018-01-10T14:34:19.458Z,-6.30
2018-01-10T14:36:52.255Z,-6.30
2018-01-10T14:39:22.266Z,-6.20
2018-01-10T14:41:50.638Z,-6.10
2018-01-10T14:44:20.393Z,-6.20
2018-01-10T14:46:52.012Z,-6.10
2018-01-10T14:49:31.070Z,-6.10
2018-01-10T14:52:02.798Z,-6.10
2018-01-10T14:54:33.639Z,-6.00
2018-01-10T14:57:04.141Z,-6.00
2018-01-10T14:59:35.205Z,-6.00
2018-01-10T15:02:04.051Z,-6.00
2018-01-10T15:04:34.955Z,-5.90
2018-01-10T15:07:05.099Z,-5.70
2018-01-10T15:09:36.163Z,-5.50
2018-01-10T15:12:07.716Z,-5.50
2018-01-10T15:14:38.149Z,-5.50
2018-01-10T15:17:06.990Z,-5.50
2018-01-10T15:19:36.677Z,-5.40
2018-01-10T15:22:06.501Z,-5.50
2018-01-10T15:24:37.634Z,-5.40
2018-01-10T15:27:07.069Z,-5.50
2018-01-10T15:29:33.939Z,-5.40
2018-01-10T15:32:02.005Z,-5.30
2018-01-10T15:34:30.876Z,-5.40
2018-01-10T15:37:02.869Z,-5.30
2018-01-10T15:39:30.029Z,-5.30
2018-01-10T15:41:58.202Z,-5.20
2018-01-10T15:44:26.075Z,-5.20
2018-01-10T15:46:54.694Z,-5.20
2018-01-10T15:49:23.250Z,-5.10
2018-01-10T15:51:50.407Z,-5.10
2018-01-10T15:54:17.252Z,-5.00
2018-01-10T15:56:46.743Z,-5.00
2018-01-10T15:59:14.225Z,-4.90
2018-01-10T16:01:41.895Z,-4.90
2018-01-10T16:04:09.050Z,-4.80
2018-01-10T16:06:37.945Z,-4.60
2018-01-10T16:09:06.330Z,-4.50
2018-01-10T16:11:33.995Z,-4.60
2018-01-10T16:14:01.892Z,-4.50
2018-01-10T16:16:29.021Z,-4.50
2018-01-10T16:18:55.772Z,-4.50
2018-01-10T16:21:22.718Z,-4.50
2018-01-10T16:23:49.980Z,-4.40
2018-01-10T16:26:18.672Z,-4.30
2018-01-10T16:28:46.953Z,-4.30
2018-01-10T16:31:14.513Z,-4.40
2018-01-10T16:33:43.005Z,-4.20
2018-01-10T16:36:10.568Z,-4.20
2018-01-10T16:38:38.334Z,-4.20
2018-01-10T16:41:05.186Z,-4.20
2018-01-10T16:43:32.334Z,-4.20
2018-01-10T16:45:59.144Z,-4.10
2018-01-10T16:48:26.242Z,-4.00
2018-01-10T16:50:53.395Z,-4.00
2018-01-10T16:53:21.371Z,-4.00
2018-01-10T16:55:48.528Z,-4.00
2018-01-10T16:58:15.274Z,-3.90
2018-01-10T17:00:42.224Z,-3.80
2018-01-10T17:03:09.787Z,-3.80
2018-01-10T17:05:36.737Z,-3.90
2018-01-10T17:08:04.404Z,-3.90
2018-01-10T17:10:31.151Z,-3.80
2018-01-10T17:12:58.923Z,-3.80
2018-01-10T17:15:25.769Z,-3.80
2018-01-10T17:17:52.492Z,-3.80
2018-01-10T17:20:19.367Z,-3.80
2018-01-10T17:22:46.727Z,-3.80
2018-01-10T17:25:14.699Z,-3.80
2018-01-10T17:27:41.548Z,-3.80
2018-01-10T17:30:08.808Z,-3.70
2018-01-10T17:32:36.271Z,-3.60
2018-01-10T17:35:03.529Z,-3.70
2018-01-10T17:37:30.481Z,-3.60
2018-01-10T17:39:57.634Z,-3.70
2018-01-10T17:42:24.379Z,-3.70
2018-01-10T17:44:51.129Z,-3.60
2018-01-10T17:47:18.386Z,-3.60
2018-01-10T17:49:45.234Z,-3.60
2018-01-10T17:55:06.862Z,-3.50
2018-01-10T17:57:34.022Z,-3.50
2018-01-10T18:00:00.770Z,-3.50
2018-01-10T18:02:27.514Z,-3.50
2018-01-10T18:04:54.363Z,-3.40
2018-01-10T18:07:21.317Z,-3.30
2018-01-10T18:09:48.574Z,-3.40
2018-01-10T18:12:15.950Z,-3.40
2018-01-10T18:14:43.404Z,-3.30
2018-01-10T18:17:10.143Z,-3.30
2018-01-10T18:19:37.301Z,-3.30
2018-01-10T18:22:04.434Z,-3.30
2018-01-10T18:24:31.303Z,-3.30
2018-01-10T18:26:58.460Z,-3.20
2018-01-10T18:29:26.125Z,-3.10
2018-01-10T18:31:53.157Z,-3.10
2018-01-10T18:34:20.037Z,-3.10
2018-01-10T18:36:46.979Z,-3.10
2018-01-10T18:39:13.829Z,-3.10
2018-01-10T18:41:40.878Z,-3.00
2018-01-10T18:44:07.728Z,-3.00
2018-01-10T18:46:34.677Z,-3.00
2018-01-10T18:49:01.529Z,-3.00
2018-01-10T18:51:28.170Z,-2.90
2018-01-10T18:53:54.918Z,-3.00
2018-01-10T18:56:21.664Z,-2.90
2018-01-10T18:58:48.513Z,-2.90
2018-01-10T19:01:15.259Z,-2.90
2018-01-10T19:03:42.215Z,-2.90
2018-01-10T19:06:09.570Z,-2.90
2018-01-10T19:08:36.520Z,-2.80
2018-01-10T19:11:03.473Z,-2.80
2018-01-10T19:13:30.526Z,-2.70
2018-01-10T19:15:58.061Z,-2.80
2018-01-10T19:18:26.375Z,-2.80
2018-01-10T19:20:53.129Z,-2.80
2018-01-10T19:23:19.967Z,-2.80
2018-01-10T19:25:47.021Z,-2.80
2018-01-10T19:28:13.969Z,-2.70
2018-01-10T19:30:40.630Z,-2.70
2018-01-10T19:33:07.563Z,-2.70
2018-01-10T19:35:34.398Z,-2.70
2018-01-10T19:38:02.185Z,-2.60
2018-01-10T19:40:29.340Z,-2.70
2018-01-10T19:42:56.173Z,-2.60
2018-01-10T19:45:23.801Z,-2.60
2018-01-10T19:47:53.126Z,-2.60
2018-01-10T19:50:21.541Z,-2.60
2018-01-10T19:52:48.340Z,-2.40
2018-01-10T19:55:16.726Z,-2.50
2018-01-10T19:57:44.236Z,-2.50
2018-01-10T20:00:11.804Z,-2.40
2018-01-10T20:02:39.044Z,-2.40
2018-01-10T20:05:09.938Z,-2.10
2018-01-10T20:07:36.749Z,-2.10
2018-01-10T20:10:03.804Z,-2.00
2018-01-10T20:12:33.108Z,-2.00
2018-01-10T20:15:01.647Z,-2.00
2018-01-10T20:17:28.649Z,-2.00
2018-01-10T20:19:55.288Z,-2.10
2018-01-10T20:22:22.546Z,-2.10
2018-01-10T20:24:49.395Z,-2.10
2018-01-10T20:27:16.142Z,-2.10
2018-01-10T20:29:43.502Z,-2.10
2018-01-10T20:32:10.352Z,-2.10
2018-01-10T20:34:37.100Z,-2.00
2018-01-10T20:37:04.155Z,-2.10
2018-01-10T20:39:31.205Z,-2.00
2018-01-10T20:41:58.260Z,-2.00
2018-01-10T20:44:25.516Z,-2.00
2018-01-10T20:46:53.309Z,-1.90
2018-01-10T20:51:42.888Z,-1.90
2018-01-10T20:54:09.642Z,-2.00
2018-01-10T20:56:36.893Z,-1.80
2018-01-10T20:59:03.643Z,-1.90
2018-01-10T21:01:30.695Z,-1.90
2018-01-10T21:03:57.615Z,-1.90
2018-01-10T21:06:25.207Z,-1.80
2018-01-10T21:08:54.056Z,-1.80
2018-01-10T21:11:22.577Z,-1.90
2018-01-10T21:13:50.640Z,-1.80
2018-01-10T21:16:18.129Z,-1.80
2018-01-10T21:18:45.286Z,-1.80
2018-01-10T21:21:12.442Z,-1.80
2018-01-10T21:23:41.130Z,-1.80
2018-01-10T21:26:08.186Z,-1.80
2018-01-10T21:28:34.982Z,-1.80
2018-01-10T21:31:02.102Z,-1.80
2018-01-10T21:33:29.240Z,-1.80
2018-01-10T21:35:57.320Z,-1.80
2018-01-10T21:38:24.168Z,-1.70
2018-01-10T21:40:52.014Z,-1.60
2018-01-10T21:43:19.293Z,-1.70
2018-01-10T21:45:46.559Z,-1.60
2018-01-10T21:48:13.567Z,-1.70
2018-01-10T21:50:41.583Z,-1.70
2018-01-10T21:53:08.842Z,-1.70
2018-01-10T21:55:36.198Z,-1.70
2018-01-10T21:58:03.253Z,-1.70
2018-01-10T22:00:30.601Z,-1.60
2018-01-10T22:02:58.368Z,-1.60
2018-01-10T22:05:26.971Z,-1.70
2018-01-10T22:07:56.093Z,-1.60
2018-01-10T22:10:23.945Z,-1.60
2018-01-10T22:12:52.660Z,-1.70
2018-01-10T22:15:21.324Z,-1.50
2018-01-10T22:17:48.990Z,-1.50
2018-01-10T22:20:16.657Z,-1.50
2018-01-10T22:22:43.816Z,-1.70
2018-01-10T22:25:11.889Z,-1.60
2018-01-10T22:27:39.990Z,-1.50
2018-01-10T22:30:08.774Z,-1.40
2018-01-10T22:32:36.362Z,-1.20
2018-01-10T22:35:04.202Z,-1.20
2018-01-10T22:37:31.868Z,-1.20
2018-01-10T22:39:59.326Z,-1.40
2018-01-10T22:42:27.407Z,-1.60
2018-01-10T22:44:54.328Z,-1.60
2018-01-10T22:47:22.994Z,-1.60
2018-01-10T22:49:50.350Z,-1.60
2018-01-10T22:52:18.176Z,-1.40
2018-01-10T22:54:46.766Z,-1.40
2018-01-10T22:57:14.022Z,-1.40
2018-01-10T22:59:41.254Z,-1.50
2018-01-10T23:02:09.256Z,-1.50
2018-01-10T23:04:37.533Z,-1.50
2018-01-10T23:07:04.370Z,-1.50
2018-01-10T23:09:32.562Z,-1.60
2018-01-10T23:11:59.514Z,-1.60
2018-01-10T23:14:26.568Z,-1.60
2018-01-10T23:16:55.611Z,-1.60
2018-01-10T23:19:23.233Z,-1.60
2018-01-10T23:21:50.386Z,-1.50
2018-01-10T23:24:18.158Z,-1.60
2018-01-10T23:26:44.901Z,-1.60
2018-01-10T23:29:11.853Z,-1.50
2018-01-10T23:31:38.653Z,-1.50
2018-01-10T23:34:05.448Z,-1.50
2018-01-10T23:36:33.220Z,-1.50
2018-01-10T23:38:59.919Z,-1.50
2018-01-10T23:41:27.940Z,-1.40
2018-01-10T23:43:55.710Z,-1.40
2018-01-10T23:46:22.861Z,-1.40
2018-01-10T23:48:49.714Z,-1.30
2018-01-10T23:51:16.569Z,-1.40
2018-01-10T23:53:44.234Z,-1.40
2018-01-10T23:56:11.081Z,-1.40
2018-01-10T23:58:37.878Z,-1.40
